createdAt,value
2017-09-29T00:00:52.946Z,96.7
2017-09-29T00:01:54.341Z,96.3
2017-09-29T00:02:55.733Z,96.8
2017-09-29T00:03:57.126Z,96.7
2017-09-29T00:04:58.517Z,96.4
2017-09-29T00:05:59.911Z,96.0
2017-09-29T00:07:01.302Z,96.8
2017-09-29T00:08:02.695Z,96.6
2017-09-29T00:09:04.086Z,96.5
2017-09-29T00:10:05.501Z,96.4
2017-09-29T00:11:06.896Z,96.4
2017-09-29T00:12:08.284Z,96.7
2017-09-29T00:13:09.675Z,96.6
2017-09-29T00:14:11.065Z,96.5
2017-09-29T00:15:12.457Z,96.5
2017-09-29T00:16:13.851Z,96.4
2017-09-29T00:17:15.245Z,96.5
2017-09-29T00:18:16.639Z,96.8
2017-09-29T00:19:18.028Z,96.6
2017-09-29T00:20:19.419Z,96.5
2017-09-29T00:21:20.811Z,96.5
2017-09-29T00:22:22.205Z,97.0
2017-09-29T00:23:23.595Z,96.7
2017-09-29T00:24:24.991Z,96.7
2017-09-29T00:25:26.382Z,96.4
2017-09-29T00:26:27.772Z,96.5
2017-09-29T00:27:29.164Z,96.5
2017-09-29T00:28:30.554Z,96.4
2017-09-29T00:29:31.945Z,96.9
2017-09-29T00:30:33.340Z,96.5
2017-09-29T00:31:34.731Z,96.7
2017-09-29T00:32:36.140Z,96.9
2017-09-29T00:33:37.529Z,97.3
2017-09-29T00:34:38.920Z,97.0
2017-09-29T00:35:40.310Z,97.3
2017-09-29T00:36:41.706Z,97.4
2017-09-29T00:37:43.097Z,96.7
2017-09-29T00:38:44.493Z,97.2
2017-09-29T00:39:45.885Z,97.5
2017-09-29T00:40:47.276Z,97.1
2017-09-29T00:41:48.665Z,97.5
2017-09-29T00:42:50.060Z,96.8
2017-09-29T00:43:51.453Z,96.7
2017-09-29T00:44:52.844Z,97.4
2017-09-29T00:45:54.235Z,96.5
2017-09-29T00:46:55.627Z,96.5
2017-09-29T00:47:57.018Z,96.9
2017-09-29T00:48:58.409Z,96.5
2017-09-29T00:49:59.804Z,96.6
2017-09-29T00:51:01.197Z,96.9
2017-09-29T00:52:02.589Z,96.7
2017-09-29T00:53:03.986Z,96.5
2017-09-29T00:54:05.377Z,97.0
2017-09-29T00:55:06.769Z,96.7
2017-09-29T00:56:08.161Z,97.4
2017-09-29T00:57:09.551Z,97.4
2017-09-29T00:58:10.941Z,97.2
2017-09-29T00:59:12.333Z,97.5
2017-09-29T01:00:13.726Z,97.3
2017-09-29T01:01:15.118Z,97.4
2017-09-29T01:02:16.509Z,97.1
2017-09-29T01:03:17.900Z,97.6
2017-09-29T01:04:19.291Z,97.2
2017-09-29T01:05:20.685Z,97.2
2017-09-29T01:06:22.078Z,97.4
2017-09-29T01:07:23.469Z,97.1
2017-09-29T01:08:24.861Z,98.1
2017-09-29T01:09:26.251Z,97.0
2017-09-29T01:10:27.647Z,97.4
2017-09-29T01:11:29.049Z,97.5
2017-09-29T01:12:30.436Z,97.7
2017-09-29T01:13:31.829Z,97.4
2017-09-29T01:14:33.223Z,97.4
2017-09-29T01:15:34.615Z,97.5
2017-09-29T01:16:36.003Z,97.8
2017-09-29T01:17:37.393Z,97.2
2017-09-29T01:18:38.786Z,97.0
2017-09-29T01:19:40.177Z,97.4
2017-09-29T01:20:41.611Z,97.5
2017-09-29T01:21:43.004Z,97.6
2017-09-29T01:22:44.400Z,97.0
2017-09-29T01:23:45.790Z,97.1
2017-09-29T01:24:47.182Z,97.4
2017-09-29T01:25:48.573Z,97.2
2017-09-29T01:26:49.964Z,97.2
2017-09-29T01:27:51.355Z,97.4
2017-09-29T01:28:52.748Z,97.6
2017-09-29T01:29:54.140Z,97.4
2017-09-29T01:30:55.530Z,97.5
2017-09-29T01:31:56.918Z,96.9
2017-09-29T01:32:58.307Z,97.2
2017-09-29T01:33:59.699Z,97.4
2017-09-29T01:35:01.091Z,97.7
2017-09-29T01:36:02.481Z,98.0
2017-09-29T01:37:03.875Z,97.6
2017-09-29T01:38:05.265Z,97.3
2017-09-29T01:39:06.655Z,97.3
2017-09-29T01:40:08.046Z,97.4
2017-09-29T01:41:09.437Z,98.1
2017-09-29T01:42:10.833Z,97.9
2017-09-29T01:43:12.223Z,97.3
2017-09-29T01:44:13.614Z,97.3
2017-09-29T01:45:15.007Z,97.6
2017-09-29T01:46:16.393Z,98.0
2017-09-29T01:47:17.796Z,97.7
2017-09-29T01:48:19.182Z,98.0
2017-09-29T01:49:20.574Z,97.7
2017-09-29T01:50:21.966Z,97.9
2017-09-29T01:51:23.359Z,97.6
2017-09-29T01:52:24.749Z,97.5
2017-09-29T01:53:26.139Z,97.7
2017-09-29T01:54:27.530Z,97.8
2017-09-29T01:55:28.923Z,97.6
2017-09-29T01:56:30.315Z,97.8
2017-09-29T01:57:31.710Z,97.9
2017-09-29T01:58:33.108Z,97.8
2017-09-29T01:59:34.491Z,98.0
2017-09-29T02:00:35.881Z,97.8
2017-09-29T02:01:37.273Z,97.7
2017-09-29T02:02:38.664Z,97.8
2017-09-29T02:03:40.054Z,97.6
2017-09-29T02:04:41.446Z,98.0
2017-09-29T02:05:42.840Z,97.8
2017-09-29T02:06:44.230Z,97.6
2017-09-29T02:07:45.621Z,98.1
2017-09-29T02:08:47.012Z,98.2
2017-09-29T02:09:48.403Z,98.0
2017-09-29T02:10:49.799Z,97.7
2017-09-29T02:11:51.192Z,97.8
2017-09-29T02:12:52.585Z,98.0
2017-09-29T02:13:53.974Z,97.9
2017-09-29T02:14:55.376Z,98.0
2017-09-29T02:15:56.750Z,97.5
2017-09-29T02:16:58.143Z,97.7
2017-09-29T02:17:59.533Z,97.7
2017-09-29T02:19:00.926Z,97.5
2017-09-29T02:20:02.318Z,97.7
2017-09-29T02:21:03.707Z,97.6
2017-09-29T02:22:05.097Z,97.6
2017-09-29T02:23:06.490Z,98.0
2017-09-29T02:24:07.880Z,97.8
2017-09-29T02:25:09.277Z,97.7
2017-09-29T02:26:10.669Z,97.5
2017-09-29T02:27:12.062Z,97.8
2017-09-29T02:28:13.451Z,98.0
2017-09-29T02:29:14.842Z,98.0
2017-09-29T02:30:16.232Z,97.8
2017-09-29T02:31:17.624Z,97.9
2017-09-29T02:32:19.013Z,98.1
2017-09-29T02:33:20.405Z,98.0
2017-09-29T02:34:21.797Z,98.0
2017-09-29T02:35:23.189Z,97.9
2017-09-29T02:36:24.581Z,97.9
2017-09-29T02:37:25.971Z,97.8
2017-09-29T02:38:27.361Z,97.6
2017-09-29T02:39:28.754Z,97.5
2017-09-29T02:40:30.148Z,97.8
2017-09-29T02:41:31.540Z,97.7
2017-09-29T02:42:32.929Z,98.0
2017-09-29T02:43:34.319Z,98.1
2017-09-29T02:44:35.709Z,98.1
2017-09-29T02:45:37.102Z,97.6
2017-09-29T02:46:38.493Z,97.4
2017-09-29T02:47:39.886Z,98.3
2017-09-29T02:48:41.280Z,98.0
2017-09-29T02:49:42.669Z,98.1
2017-09-29T02:50:44.086Z,97.7
2017-09-29T02:51:45.452Z,98.0
2017-09-29T02:52:46.843Z,98.1
2017-09-29T02:53:48.237Z,98.0
2017-09-29T02:54:49.634Z,98.0
2017-09-29T02:55:51.026Z,98.8
2017-09-29T02:56:52.412Z,98.2
2017-09-29T02:57:53.805Z,98.2
2017-09-29T02:58:55.195Z,98.4
2017-09-29T02:59:56.658Z,98.4
2017-09-29T03:00:58.050Z,98.4
2017-09-29T03:01:59.441Z,98.6
2017-09-29T03:03:00.836Z,98.5
2017-09-29T03:04:02.229Z,98.1
2017-09-29T03:05:03.620Z,98.4
2017-09-29T03:06:05.010Z,98.4
2017-09-29T03:07:06.400Z,98.6
2017-09-29T03:08:07.793Z,98.6
2017-09-29T03:09:09.187Z,98.2
2017-09-29T03:10:10.580Z,98.8
2017-09-29T03:11:11.970Z,98.0
2017-09-29T03:12:13.359Z,98.2
2017-09-29T03:13:14.749Z,97.8
2017-09-29T03:14:16.142Z,97.6
2017-09-29T03:15:17.533Z,97.8
2017-09-29T03:16:18.929Z,97.7
2017-09-29T03:17:20.318Z,97.5
2017-09-29T03:18:21.707Z,98.0
2017-09-29T03:19:23.099Z,97.5
2017-09-29T03:20:24.491Z,97.7
2017-09-29T03:21:25.885Z,97.8
2017-09-29T03:22:27.278Z,97.9
2017-09-29T03:23:28.668Z,98.0
2017-09-29T03:24:30.059Z,97.8
2017-09-29T03:25:31.449Z,97.9
2017-09-29T03:26:32.840Z,98.0
2017-09-29T03:27:34.267Z,97.7
2017-09-29T03:28:35.622Z,97.7
2017-09-29T03:29:37.012Z,97.7
2017-09-29T03:30:38.411Z,97.8
2017-09-29T03:31:39.802Z,97.5
2017-09-29T03:32:41.195Z,97.7
2017-09-29T03:33:42.582Z,97.7
2017-09-29T03:34:44.824Z,97.7
2017-09-29T03:35:45.339Z,98.0
2017-09-29T03:36:46.730Z,98.2
2017-09-29T03:37:48.124Z,98.1
2017-09-29T03:38:49.516Z,98.2
2017-09-29T03:39:50.907Z,97.9
2017-09-29T03:40:52.299Z,98.5
2017-09-29T03:41:53.690Z,98.0
2017-09-29T03:42:55.081Z,98.2
2017-09-29T03:43:56.472Z,98.1
2017-09-29T03:44:57.866Z,98.1
2017-09-29T03:45:59.259Z,98.3
2017-09-29T03:47:00.649Z,98.2
2017-09-29T03:48:02.038Z,98.2
2017-09-29T03:49:03.428Z,98.3
2017-09-29T03:50:04.818Z,98.8
2017-09-29T03:51:06.210Z,98.7
2017-09-29T03:52:07.606Z,98.3
2017-09-29T03:53:08.997Z,98.6
2017-09-29T03:54:10.387Z,98.5
2017-09-29T03:55:11.779Z,98.3
2017-09-29T03:56:13.169Z,98.7
2017-09-29T03:57:14.562Z,98.5
2017-09-29T03:58:15.951Z,98.6
2017-09-29T03:59:17.345Z,98.1
2017-09-29T04:00:18.741Z,97.8
2017-09-29T04:01:20.128Z,98.1
2017-09-29T04:02:21.521Z,98.1
2017-09-29T04:03:22.908Z,98.0
2017-09-29T04:04:24.299Z,98.2
2017-09-29T04:05:25.692Z,98.0
2017-09-29T04:06:27.086Z,98.5
2017-09-29T04:07:28.481Z,98.3
2017-09-29T04:08:29.872Z,98.4
2017-09-29T04:09:31.263Z,98.5
2017-09-29T04:10:32.655Z,98.1
2017-09-29T04:11:34.048Z,98.3
2017-09-29T04:12:35.437Z,98.1
2017-09-29T04:13:36.829Z,97.9
2017-09-29T04:14:38.223Z,97.7
2017-09-29T04:15:39.613Z,97.8
2017-09-29T04:16:41.003Z,97.5
2017-09-29T04:17:42.390Z,97.4
2017-09-29T04:18:43.783Z,97.9
2017-09-29T04:19:45.181Z,97.6
2017-09-29T04:20:46.566Z,97.7
2017-09-29T04:21:47.958Z,97.5
2017-09-29T04:22:50.417Z,97.8
2017-09-29T04:23:51.812Z,97.7
2017-09-29T04:24:53.200Z,97.7
2017-09-29T04:25:54.645Z,97.9
2017-09-29T04:26:56.037Z,97.8
2017-09-29T04:27:57.459Z,97.8
2017-09-29T04:28:58.852Z,98.0
2017-09-29T04:30:00.398Z,97.9
2017-09-29T04:31:01.788Z,97.9
2017-09-29T04:32:03.261Z,97.9
2017-09-29T04:33:04.651Z,97.9
2017-09-29T04:34:06.063Z,97.9
2017-09-29T04:35:07.531Z,97.9
2017-09-29T04:36:08.924Z,98.0
2017-09-29T04:37:10.585Z,97.3
2017-09-29T04:38:11.976Z,97.6
2017-09-29T04:39:13.387Z,97.8
2017-09-29T04:40:14.780Z,97.7
2017-09-29T04:41:16.173Z,97.0
2017-09-29T04:42:17.566Z,97.6
2017-09-29T04:43:19.016Z,97.7
2017-09-29T04:44:20.409Z,97.6
2017-09-29T04:45:21.799Z,97.9
2017-09-29T04:46:23.191Z,97.5
2017-09-29T04:47:24.621Z,98.1
2017-09-29T04:48:26.010Z,97.8
2017-09-29T04:49:27.406Z,97.7
2017-09-29T04:50:28.799Z,97.9
2017-09-29T04:51:30.188Z,97.8
2017-09-29T04:52:31.582Z,97.9
2017-09-29T04:53:32.974Z,97.8
2017-09-29T04:54:34.365Z,97.7
2017-09-29T04:55:35.756Z,97.1
2017-09-29T04:56:37.149Z,97.1
2017-09-29T04:57:38.545Z,97.5
2017-09-29T04:58:39.937Z,97.4
2017-09-29T04:59:41.327Z,97.0
2017-09-29T05:00:42.715Z,97.2
2017-09-29T05:01:44.108Z,96.8
2017-09-29T05:02:45.499Z,96.8
2017-09-29T05:03:46.893Z,96.7
2017-09-29T05:04:48.283Z,96.6
2017-09-29T05:05:49.672Z,97.1
2017-09-29T05:06:51.063Z,97.0
2017-09-29T05:07:52.455Z,97.2
2017-09-29T05:08:53.848Z,97.1
2017-09-29T05:09:55.240Z,97.2
2017-09-29T05:10:56.632Z,97.2
2017-09-29T05:11:58.024Z,97.3
2017-09-29T05:12:59.415Z,97.7
2017-09-29T05:14:00.808Z,97.1
2017-09-29T05:15:02.200Z,97.0
2017-09-29T05:16:03.589Z,97.2
2017-09-29T05:17:04.981Z,97.4
2017-09-29T05:18:06.373Z,97.2
2017-09-29T05:19:07.767Z,97.2
2017-09-29T05:20:09.161Z,96.8
2017-09-29T05:21:10.554Z,96.6
2017-09-29T05:22:12.021Z,96.8
2017-09-29T05:23:13.430Z,96.8
2017-09-29T05:24:14.821Z,96.6
2017-09-29T05:25:16.215Z,96.6
2017-09-29T05:26:17.610Z,96.2
2017-09-29T05:27:19.006Z,96.6
2017-09-29T05:28:20.403Z,96.6
2017-09-29T05:29:21.793Z,96.6
2017-09-29T05:30:23.185Z,96.3
2017-09-29T05:31:24.698Z,96.7
2017-09-29T05:32:26.089Z,96.3
2017-09-29T05:33:27.637Z,96.5
2017-09-29T05:34:29.056Z,96.6
2017-09-29T05:35:30.455Z,96.5
2017-09-29T05:36:31.846Z,96.3
2017-09-29T05:37:33.241Z,96.9
2017-09-29T05:38:34.631Z,96.8
2017-09-29T05:39:36.027Z,96.7
2017-09-29T05:40:37.428Z,96.7
2017-09-29T05:41:38.818Z,96.8
2017-09-29T05:42:40.217Z,96.4
2017-09-29T05:43:41.604Z,96.4
2017-09-29T05:44:42.999Z,96.5
2017-09-29T05:45:44.394Z,96.6
2017-09-29T05:46:45.794Z,96.3
2017-09-29T05:47:47.182Z,96.4
2017-09-29T05:48:48.575Z,96.7
2017-09-29T05:49:49.965Z,96.6
2017-09-29T05:50:51.356Z,96.8
2017-09-29T05:51:53.553Z,96.8
2017-09-29T05:52:54.953Z,96.6
2017-09-29T05:53:56.347Z,96.3
2017-09-29T05:54:57.744Z,96.9
2017-09-29T05:55:59.137Z,96.8
2017-09-29T05:57:00.528Z,96.8
2017-09-29T05:58:01.928Z,96.6
2017-09-29T05:59:03.319Z,96.3
2017-09-29T06:00:04.714Z,96.7
2017-09-29T06:01:06.110Z,96.1
2017-09-29T06:02:07.507Z,96.7
2017-09-29T06:03:08.899Z,96.5
2017-09-29T06:04:10.312Z,96.5
2017-09-29T06:05:11.686Z,96.2
2017-09-29T06:06:13.081Z,95.9
2017-09-29T06:07:14.474Z,95.8
2017-09-29T06:08:15.876Z,96.2
2017-09-29T06:09:17.272Z,96.2
2017-09-29T06:10:18.719Z,96.1
2017-09-29T06:11:20.123Z,96.0
2017-09-29T06:12:21.502Z,95.9
2017-09-29T06:13:22.899Z,95.6
2017-09-29T06:14:24.294Z,95.6
2017-09-29T06:15:25.701Z,95.6
2017-09-29T06:16:27.091Z,95.6
2017-09-29T06:17:28.481Z,95.6
2017-09-29T06:18:29.874Z,95.3
2017-09-29T06:19:31.267Z,96.0
2017-09-29T06:20:32.661Z,95.8
2017-09-29T06:21:34.053Z,95.3
2017-09-29T06:22:35.452Z,95.6
2017-09-29T06:23:36.846Z,95.6
2017-09-29T06:24:38.238Z,95.0
2017-09-29T06:25:39.630Z,95.4
2017-09-29T06:26:41.024Z,94.9
2017-09-29T06:27:42.418Z,95.0
2017-09-29T06:28:43.812Z,95.0
2017-09-29T06:29:45.207Z,94.8
2017-09-29T06:30:46.606Z,95.2
2017-09-29T06:31:47.999Z,94.9
2017-09-29T06:32:49.392Z,95.4
2017-09-29T06:33:50.785Z,95.1
2017-09-29T06:34:52.178Z,95.4
2017-09-29T06:35:53.574Z,95.4
2017-09-29T06:36:54.972Z,94.7
2017-09-29T06:37:56.363Z,95.0
2017-09-29T06:38:57.759Z,95.0
2017-09-29T06:39:59.151Z,95.2
2017-09-29T06:41:00.546Z,94.7
2017-09-29T06:42:01.939Z,94.8
2017-09-29T06:43:03.337Z,94.7
2017-09-29T06:44:04.733Z,94.7
2017-09-29T06:45:06.136Z,94.7
2017-09-29T06:46:07.522Z,94.5
2017-09-29T06:47:08.917Z,94.3
2017-09-29T06:48:10.309Z,94.3
2017-09-29T06:49:11.705Z,94.8
2017-09-29T06:50:13.097Z,94.6
2017-09-29T06:51:14.494Z,94.7
2017-09-29T06:52:15.891Z,94.6
2017-09-29T06:53:17.282Z,94.6
2017-09-29T06:54:18.675Z,94.6
2017-09-29T06:55:20.070Z,94.8
2017-09-29T06:56:21.464Z,94.9
2017-09-29T06:57:22.859Z,94.5
2017-09-29T06:58:24.253Z,94.6
2017-09-29T06:59:25.650Z,94.5
2017-09-29T07:00:27.044Z,94.9
2017-09-29T07:01:28.437Z,94.6
2017-09-29T07:02:29.832Z,94.8
2017-09-29T07:03:31.226Z,93.9
2017-09-29T07:04:32.619Z,95.2
2017-09-29T07:05:34.013Z,94.8
2017-09-29T07:06:35.408Z,94.9
2017-09-29T07:07:36.803Z,94.8
2017-09-29T07:08:38.197Z,95.0
2017-09-29T07:09:39.591Z,94.0
2017-09-29T07:10:40.987Z,94.0
2017-09-29T07:11:42.384Z,94.5
2017-09-29T07:12:43.780Z,94.3
2017-09-29T07:13:45.178Z,94.3
2017-09-29T07:14:46.571Z,93.4
2017-09-29T07:15:47.971Z,94.4
2017-09-29T07:16:49.364Z,94.3
2017-09-29T07:17:50.758Z,94.4
2017-09-29T07:18:52.157Z,93.4
2017-09-29T07:19:53.551Z,93.6
2017-09-29T07:20:54.950Z,94.1
2017-09-29T07:21:56.342Z,93.8
2017-09-29T07:22:57.741Z,93.5
2017-09-29T07:23:59.132Z,93.4
2017-09-29T07:25:00.528Z,94.1
2017-09-29T07:26:01.924Z,93.4
2017-09-29T07:27:03.332Z,93.3
2017-09-29T07:28:04.722Z,93.8
2017-09-29T07:29:06.118Z,93.4
2017-09-29T07:30:07.514Z,93.1
2017-09-29T07:31:08.907Z,93.1
2017-09-29T07:32:10.301Z,92.9
2017-09-29T07:33:11.698Z,93.0
2017-09-29T07:34:13.094Z,92.7
2017-09-29T07:35:14.490Z,93.2
2017-09-29T07:36:15.884Z,92.2
2017-09-29T07:37:17.276Z,93.1
2017-09-29T07:38:18.668Z,93.0
2017-09-29T07:39:20.067Z,93.2
2017-09-29T07:40:21.462Z,92.6
2017-09-29T07:41:22.858Z,93.0
2017-09-29T07:42:24.256Z,92.8
2017-09-29T07:43:25.651Z,92.5
2017-09-29T07:44:27.044Z,92.7
2017-09-29T07:45:28.444Z,92.0
2017-09-29T07:46:29.842Z,92.0
2017-09-29T07:47:31.272Z,92.0
2017-09-29T07:48:32.673Z,91.8
2017-09-29T07:49:34.072Z,91.3
2017-09-29T07:50:35.467Z,91.1
2017-09-29T07:51:36.866Z,91.4
2017-09-29T07:52:38.258Z,90.5
2017-09-29T07:53:39.656Z,90.7
2017-09-29T07:54:41.049Z,90.1
2017-09-29T07:55:42.446Z,90.2
2017-09-29T07:56:43.844Z,90.3
2017-09-29T07:57:45.237Z,89.9
2017-09-29T07:58:46.636Z,89.3
2017-09-29T07:59:48.038Z,89.4
2017-09-29T08:00:49.428Z,89.8
2017-09-29T08:01:50.825Z,89.5
2017-09-29T08:02:52.220Z,90.0
2017-09-29T08:03:53.617Z,89.5
2017-09-29T08:04:55.011Z,89.9
2017-09-29T08:05:56.410Z,89.8
2017-09-29T08:06:57.805Z,89.4
2017-09-29T08:07:59.202Z,89.4
2017-09-29T08:09:00.598Z,89.3
2017-09-29T08:10:01.995Z,89.1
2017-09-29T08:11:03.396Z,89.1
2017-09-29T08:12:04.790Z,88.7
2017-09-29T08:13:06.187Z,88.1
2017-09-29T08:14:07.584Z,88.0
2017-09-29T08:15:08.983Z,87.7
2017-09-29T08:16:10.381Z,87.6
2017-09-29T08:17:11.780Z,86.6
2017-09-29T08:18:13.179Z,87.5
2017-09-29T08:19:14.574Z,86.9
2017-09-29T08:20:15.969Z,87.4
2017-09-29T08:21:17.367Z,87.5
2017-09-29T08:22:18.762Z,87.2
2017-09-29T08:23:20.159Z,86.8
2017-09-29T08:24:21.561Z,86.6
2017-09-29T08:25:22.956Z,86.1
2017-09-29T08:26:24.356Z,85.4
2017-09-29T08:27:25.755Z,85.5
2017-09-29T08:28:27.151Z,85.9
2017-09-29T08:29:28.548Z,86.0
2017-09-29T08:30:29.949Z,85.7
2017-09-29T08:31:31.348Z,86.5
2017-09-29T08:32:32.746Z,85.3
2017-09-29T08:33:34.143Z,84.6
2017-09-29T08:34:35.540Z,84.8
2017-09-29T08:35:36.933Z,84.7
2017-09-29T08:36:38.333Z,84.1
2017-09-29T08:37:39.731Z,84.3
2017-09-29T08:38:41.130Z,84.5
2017-09-29T08:39:42.529Z,84.3
2017-09-29T08:40:43.924Z,84.2
2017-09-29T08:41:45.320Z,84.3
2017-09-29T08:42:46.716Z,83.8
2017-09-29T08:43:48.111Z,83.5
2017-09-29T08:44:49.510Z,83.2
2017-09-29T08:45:50.908Z,83.7
2017-09-29T08:46:52.309Z,83.3
2017-09-29T08:47:53.707Z,83.6
2017-09-29T08:48:55.104Z,82.5
2017-09-29T08:49:56.507Z,82.9
2017-09-29T08:50:57.904Z,82.5
2017-09-29T08:51:59.311Z,82.7
2017-09-29T08:53:00.706Z,81.8
2017-09-29T08:54:02.105Z,81.6
2017-09-29T08:55:03.500Z,80.5
2017-09-29T08:56:04.899Z,80.0
2017-09-29T08:57:06.293Z,79.9
2017-09-29T08:58:07.692Z,79.7
2017-09-29T08:59:09.091Z,79.6
2017-09-29T09:00:10.491Z,78.7
2017-09-29T09:01:11.889Z,78.8
2017-09-29T09:02:13.286Z,78.8
2017-09-29T09:03:14.688Z,77.5
2017-09-29T09:04:16.086Z,77.1
2017-09-29T09:05:17.484Z,76.8
2017-09-29T09:06:18.883Z,75.7
2017-09-29T09:07:20.284Z,76.1
2017-09-29T09:08:21.687Z,75.5
2017-09-29T09:09:23.084Z,75.3
2017-09-29T09:10:24.484Z,75.0
2017-09-29T09:11:25.882Z,72.5
2017-09-29T09:12:27.283Z,71.2
2017-09-29T09:13:28.685Z,70.7
2017-09-29T09:14:30.087Z,70.1
2017-09-29T09:15:31.490Z,69.2
2017-09-29T09:16:32.893Z,68.2
2017-09-29T09:17:34.302Z,67.0
2017-09-29T09:18:35.701Z,66.3
2017-09-29T09:19:37.102Z,66.8
2017-09-29T09:20:38.503Z,66.2
2017-09-29T09:21:39.904Z,66.2
2017-09-29T09:22:41.308Z,66.9
2017-09-29T09:23:42.703Z,66.2
2017-09-29T09:24:44.140Z,66.5
2017-09-29T09:25:45.541Z,66.8
2017-09-29T09:26:46.945Z,65.9
2017-09-29T09:27:48.346Z,65.6
2017-09-29T09:28:49.751Z,65.2
2017-09-29T09:29:51.151Z,63.6
2017-09-29T09:30:52.551Z,63.6
2017-09-29T09:31:53.951Z,63.5
2017-09-29T09:32:55.358Z,63.4
2017-09-29T09:33:56.762Z,62.5
2017-09-29T09:34:58.166Z,62.5
2017-09-29T09:35:59.571Z,62.9
2017-09-29T09:37:00.975Z,62.3
2017-09-29T09:38:02.377Z,61.6
2017-09-29T09:39:03.780Z,62.0
2017-09-29T09:40:05.183Z,59.6
2017-09-29T09:41:06.587Z,57.8
2017-09-29T09:42:07.992Z,57.4
2017-09-29T09:43:09.400Z,56.7
2017-09-29T09:44:10.803Z,55.7
2017-09-29T09:45:12.205Z,54.9
2017-09-29T09:46:13.610Z,55.2
2017-09-29T09:47:15.018Z,55.1
2017-09-29T09:48:16.421Z,55.2
2017-09-29T09:49:17.823Z,55.6
2017-09-29T09:50:19.229Z,55.7
2017-09-29T09:51:20.635Z,54.8
2017-09-29T09:52:22.044Z,54.5
2017-09-29T09:53:23.444Z,53.5
2017-09-29T09:54:24.850Z,52.6
2017-09-29T09:55:26.253Z,51.7
2017-09-29T09:56:27.664Z,50.8
2017-09-29T09:57:29.073Z,49.5
2017-09-29T09:58:30.478Z,48.3
2017-09-29T09:59:31.880Z,47.6
2017-09-29T10:00:33.289Z,47.4
2017-09-29T10:01:34.694Z,46.4
2017-09-29T10:02:36.101Z,45.1
2017-09-29T10:03:37.510Z,44.2
2017-09-29T10:04:38.920Z,44.7
2017-09-29T10:05:40.328Z,44.9
2017-09-29T10:06:41.732Z,42.4
2017-09-29T10:07:43.139Z,42.8
2017-09-29T10:08:44.549Z,42.1
2017-09-29T10:09:45.959Z,42.0
2017-09-29T10:10:47.366Z,41.9
2017-09-29T10:11:48.778Z,42.3
2017-09-29T10:12:50.197Z,42.2
2017-09-29T10:13:51.612Z,43.0
2017-09-29T10:14:53.022Z,43.7
2017-09-29T10:15:54.429Z,44.1
2017-09-29T10:16:55.838Z,43.4
2017-09-29T10:17:57.247Z,43.5
2017-09-29T10:18:58.678Z,43.1
2017-09-29T10:20:00.081Z,42.5
2017-09-29T10:21:01.523Z,41.8
2017-09-29T10:22:02.902Z,41.4
2017-09-29T10:23:04.315Z,42.3
2017-09-29T10:24:05.736Z,41.4
2017-09-29T10:25:07.136Z,41.1
2017-09-29T10:26:08.545Z,40.9
2017-09-29T10:27:09.955Z,40.1
2017-09-29T10:28:11.364Z,39.7
2017-09-29T10:29:12.775Z,39.9
2017-09-29T10:30:14.181Z,39.4
2017-09-29T10:31:15.784Z,41.1
2017-09-29T10:32:17.167Z,41.1
2017-09-29T10:33:18.575Z,41.2
2017-09-29T10:34:19.984Z,42.1
2017-09-29T10:35:21.391Z,41.7
2017-09-29T10:36:22.798Z,42.0
2017-09-29T10:37:24.208Z,42.1
2017-09-29T10:38:25.611Z,41.9
2017-09-29T10:39:27.018Z,40.8
2017-09-29T10:40:28.425Z,42.4
2017-09-29T10:41:29.834Z,42.8
2017-09-29T10:42:31.237Z,42.8
2017-09-29T10:43:32.639Z,44.0
2017-09-29T10:44:34.046Z,43.7
2017-09-29T10:45:35.453Z,43.9
2017-09-29T10:46:36.857Z,44.5
2017-09-29T10:47:38.264Z,44.6
2017-09-29T10:48:39.669Z,44.7
2017-09-29T10:49:41.074Z,46.5
2017-09-29T10:50:42.476Z,46.4
2017-09-29T10:51:43.882Z,45.5
2017-09-29T10:52:45.287Z,45.2
2017-09-29T10:53:46.695Z,45.0
2017-09-29T10:54:48.100Z,45.4
2017-09-29T10:55:49.507Z,45.6
2017-09-29T10:56:50.911Z,45.6
2017-09-29T10:57:52.310Z,45.7
2017-09-29T10:58:53.721Z,45.4
2017-09-29T10:59:55.122Z,47.2
2017-09-29T11:00:56.528Z,47.5
2017-09-29T11:01:57.933Z,47.3
2017-09-29T11:02:59.340Z,47.9
2017-09-29T11:04:00.744Z,47.9
2017-09-29T11:05:02.146Z,47.8
2017-09-29T11:06:03.551Z,48.8
2017-09-29T11:07:04.954Z,49.2
2017-09-29T11:08:06.358Z,48.9
2017-09-29T11:09:07.788Z,49.4
2017-09-29T11:10:09.169Z,49.4
2017-09-29T11:11:10.568Z,49.5
2017-09-29T11:12:11.970Z,49.2
2017-09-29T11:13:13.378Z,49.8
2017-09-29T11:14:14.782Z,49.2
2017-09-29T11:15:16.186Z,49.9
2017-09-29T11:16:17.591Z,49.7
2017-09-29T11:17:18.996Z,50.5
2017-09-29T11:18:20.399Z,50.5
2017-09-29T11:19:21.801Z,50.3
2017-09-29T11:20:23.204Z,50.6
2017-09-29T11:21:24.607Z,51.2
2017-09-29T11:22:26.013Z,51.4
2017-09-29T11:23:27.417Z,51.0
2017-09-29T11:24:28.823Z,50.9
2017-09-29T11:25:30.225Z,51.5
2017-09-29T11:26:31.626Z,50.2
2017-09-29T11:27:33.027Z,50.9
2017-09-29T11:28:34.435Z,50.4
2017-09-29T11:29:35.837Z,50.9
2017-09-29T11:30:37.244Z,49.8
2017-09-29T11:31:38.654Z,50.3
2017-09-29T11:32:40.056Z,49.7
2017-09-29T11:33:41.459Z,50.0
2017-09-29T11:34:42.867Z,50.2
2017-09-29T11:35:44.275Z,49.4
2017-09-29T11:36:45.679Z,49.6
2017-09-29T11:37:47.085Z,49.7
2017-09-29T11:38:48.492Z,49.7
2017-09-29T11:39:49.893Z,49.8
2017-09-29T11:40:51.295Z,50.9
2017-09-29T11:41:52.695Z,50.2
2017-09-29T11:42:54.097Z,49.9
2017-09-29T11:43:55.505Z,49.5
2017-09-29T11:44:56.904Z,50.4
2017-09-29T11:45:58.306Z,50.6
2017-09-29T11:46:59.707Z,51.0
2017-09-29T11:48:01.111Z,50.5
2017-09-29T11:49:02.510Z,50.5
2017-09-29T11:50:03.916Z,52.1
2017-09-29T11:51:05.321Z,51.9
2017-09-29T11:52:06.725Z,52.1
2017-09-29T11:53:08.128Z,52.9
2017-09-29T11:54:09.528Z,52.9
2017-09-29T11:55:10.935Z,51.8
2017-09-29T11:56:12.337Z,51.8
2017-09-29T11:57:13.738Z,51.4
2017-09-29T11:58:15.147Z,51.3
2017-09-29T11:59:16.545Z,51.4
2017-09-29T12:00:17.946Z,51.9
2017-09-29T12:01:19.348Z,51.6
2017-09-29T12:02:20.756Z,51.6
2017-09-29T12:03:22.163Z,51.4
2017-09-29T12:04:23.561Z,50.7
2017-09-29T12:05:24.963Z,51.6
2017-09-29T12:06:26.365Z,51.6
2017-09-29T12:07:27.770Z,52.1
2017-09-29T12:08:29.169Z,52.0
2017-09-29T12:09:30.569Z,51.8
2017-09-29T12:10:31.972Z,52.4
2017-09-29T12:11:33.374Z,52.8
2017-09-29T12:12:34.773Z,52.9
2017-09-29T12:13:36.175Z,52.7
2017-09-29T12:14:37.580Z,53.4
2017-09-29T12:15:38.978Z,52.7
2017-09-29T12:16:40.378Z,53.0
2017-09-29T12:17:41.780Z,53.4
2017-09-29T12:18:43.183Z,53.3
2017-09-29T12:19:44.586Z,53.5
2017-09-29T12:20:45.989Z,54.7
2017-09-29T12:21:47.394Z,55.2
2017-09-29T12:22:48.793Z,55.0
2017-09-29T12:23:50.194Z,54.7
2017-09-29T12:24:51.596Z,54.9
2017-09-29T12:25:52.997Z,54.2
2017-09-29T12:26:54.400Z,54.7
2017-09-29T12:27:55.803Z,54.6
2017-09-29T12:28:57.207Z,55.5
2017-09-29T12:29:58.612Z,54.8
2017-09-29T12:31:00.011Z,55.1
2017-09-29T12:32:01.409Z,54.9
2017-09-29T12:33:02.824Z,54.4
2017-09-29T12:34:04.214Z,54.9
2017-09-29T12:35:05.617Z,54.6
2017-09-29T12:36:07.022Z,54.2
2017-09-29T12:37:08.431Z,54.0
2017-09-29T12:38:09.841Z,54.9
2017-09-29T12:39:11.250Z,54.5
2017-09-29T12:40:13.117Z,54.8
2017-09-29T12:41:14.520Z,54.4
2017-09-29T12:42:16.199Z,54.7
2017-09-29T12:43:17.733Z,53.2
2017-09-29T12:44:19.614Z,51.3
2017-09-29T12:45:21.017Z,51.6
2017-09-29T12:46:22.773Z,50.8
2017-09-29T12:47:24.280Z,50.0
2017-09-29T12:48:25.685Z,49.6
2017-09-29T12:49:27.281Z,49.5
2017-09-29T12:50:28.993Z,49.5
2017-09-29T12:51:30.584Z,49.3
2017-09-29T12:52:32.138Z,49.7
2017-09-29T12:53:33.539Z,49.2
2017-09-29T12:54:34.940Z,49.1
2017-09-29T12:55:36.588Z,48.7
2017-09-29T12:56:38.229Z,49.1
2017-09-29T12:57:39.904Z,50.6
2017-09-29T12:58:41.326Z,50.7
2017-09-29T12:59:42.791Z,50.5
2017-09-29T13:00:44.191Z,50.8
2017-09-29T13:01:45.631Z,50.0
2017-09-29T13:02:47.286Z,49.9
2017-09-29T13:03:48.690Z,50.4
2017-09-29T13:04:50.339Z,50.4
2017-09-29T13:05:51.744Z,51.4
2017-09-29T13:06:53.215Z,50.7
2017-09-29T13:07:54.617Z,50.3
2017-09-29T13:08:56.040Z,51.4
2017-09-29T13:09:57.444Z,50.5
2017-09-29T13:10:58.862Z,50.0
2017-09-29T13:12:00.265Z,51.1
2017-09-29T13:13:01.669Z,51.7
2017-09-29T13:14:03.073Z,51.9
2017-09-29T13:15:04.524Z,52.8
2017-09-29T13:16:05.929Z,51.7
2017-09-29T13:17:07.330Z,51.4
2017-09-29T13:18:08.739Z,51.3
2017-09-29T13:19:10.146Z,51.7
2017-09-29T13:20:11.547Z,52.0
2017-09-29T13:21:12.947Z,52.7
2017-09-29T13:22:14.349Z,52.6
2017-09-29T13:23:15.857Z,51.8
2017-09-29T13:24:17.188Z,51.9
2017-09-29T13:25:18.604Z,52.9
2017-09-29T13:26:19.998Z,53.2
2017-09-29T13:27:21.403Z,52.0
2017-09-29T13:28:22.970Z,50.7
2017-09-29T13:29:24.369Z,50.5
2017-09-29T13:30:25.773Z,50.4
2017-09-29T13:31:27.177Z,50.5
2017-09-29T13:32:28.581Z,51.0
2017-09-29T13:33:29.984Z,51.9
2017-09-29T13:34:31.384Z,52.1
2017-09-29T13:35:32.784Z,53.0
2017-09-29T13:36:34.184Z,52.0
2017-09-29T13:37:35.588Z,52.8